Time;durP1;ratioP1;P1;durP2;ratioP2;P2;SDS_P1;SDS_P2;PMS_P1;PMS_P2;Temp;Humidity;BMP_temperature;BMP_pressure;BME280_temperature;BME280_humidity;BME280_pressure;Samples;Min_cycle;Max_cycle;Signal;HPM_P1;HPM_P2
2023/09/25 00:02:22;;;;;;;1.40;1.30;;;;;;;;;;4998879;28;20182;-50
2023/09/25 00:04:48;;;;;;;1.73;1.63;;;;;;;;;;5009772;28;20528;-50
2023/09/25 00:07:14;;;;;;;2.70;1.90;;;;;;;;;;5003182;28;20185;-50
2023/09/25 00:09:40;;;;;;;1.50;1.40;;;;;;;;;;5014450;28;20207;-49
2023/09/25 00:12:06;;;;;;;1.63;1.52;;;;;;;;;;4997470;28;20182;-50
2023/09/25 00:14:32;;;;;;;1.95;1.50;;;;;;;;;;5013807;28;20626;-50
2023/09/25 00:16:58;;;;;;;1.55;1.45;;;;;;;;;;4996061;28;20267;-50
2023/09/25 00:19:23;;;;;;;1.70;1.40;;;;;;;;;;4992284;28;20185;-50
2023/09/25 00:21:49;;;;;;;1.42;1.35;;;;;;;;;;4994252;28;20182;-50
2023/09/25 00:24:15;;;;;;;5.40;1.80;;;;;;;;;;4997206;28;20213;-50
2023/09/25 00:26:42;;;;;;;1.85;1.45;;;;;;;;;;4987991;28;20200;-50
2023/09/25 00:29:10;;;;;;;2.00;1.40;;;;;;;;;;5000899;28;20564;-50
2023/09/25 00:31:37;;;;;;;1.45;1.33;;;;;;;;;;4988929;28;20189;-49
2023/09/25 00:34:03;;;;;;;1.50;1.40;;;;;;;;;;4990077;28;20228;-50
2023/09/25 00:36:29;;;;;;;1.63;1.33;;;;;;;;;;5001693;28;20185;-49
2023/09/25 00:38:54;;;;;;;2.00;1.70;;;;;;;;;;4993868;28;20193;-50
2023/09/25 00:41:20;;;;;;;1.45;1.35;;;;;;;;;;4996159;28;20461;-50
2023/09/25 00:43:46;;;;;;;2.38;1.70;;;;;;;;;;4995467;28;20181;-50
2023/09/25 00:46:12;;;;;;;1.50;1.40;;;;;;;;;;4989597;28;20188;-50
2023/09/25 00:48:42;;;;;;;2.33;1.60;;;;;;;;;;4991617;28;20232;-49
2023/09/25 00:51:09;;;;;;;1.20;1.02;;;;;;;;;;4997040;28;20187;-50
2023/09/25 00:53:35;;;;;;;1.65;1.45;;;;;;;;;;5008331;28;20291;-50
2023/09/25 00:56:01;;;;;;;2.85;1.20;;;;;;;;;;4994289;28;20185;-49
2023/09/25 00:58:27;;;;;;;1.55;1.45;;;;;;;;;;5008383;28;20203;-50
2023/09/25 01:00:54;;;;;;;2.28;1.40;;;;;;;;;;5010156;28;20568;-51
2023/09/25 01:03:20;;;;;;;1.90;1.70;;;;;;;;;;4993000;28;20248;-49
2023/09/25 01:05:46;;;;;;;2.28;1.25;;;;;;;;;;5000095;28;20197;-50
2023/09/25 01:08:12;;;;;;;1.52;1.42;;;;;;;;;;4998765;28;20192;-50
2023/09/25 01:10:39;;;;;;;1.45;1.35;;;;;;;;;;4995892;28;20209;-51
2023/09/25 01:13:05;;;;;;;1.45;1.35;;;;;;;;;;4986823;28;20223;-50
2023/09/25 01:15:31;;;;;;;1.30;1.20;;;;;;;;;;4992217;28;20183;-50
2023/09/25 01:17:57;;;;;;;1.35;1.20;;;;;;;;;;5002829;28;20188;-50
2023/09/25 01:20:24;;;;;;;1.38;1.27;;;;;;;;;;5003497;28;20276;-51
2023/09/25 01:22:50;;;;;;;1.33;1.10;;;;;;;;;;4969371;28;1217666;-50
2023/09/25 01:25:17;;;;;;;1.25;1.15;;;;;;;;;;5008937;28;20177;-50
2023/09/25 01:27:43;;;;;;;1.25;1.15;;;;;;;;;;4994889;28;20184;-49
2023/09/25 01:30:10;;;;;;;1.70;1.38;;;;;;;;;;5000934;28;20192;-49
2023/09/25 01:32:37;;;;;;;1.40;1.30;;;;;;;;;;5004339;28;20223;-50
2023/09/25 01:35:04;;;;;;;1.92;1.08;;;;;;;;;;5011505;28;20200;-50
2023/09/25 01:37:30;;;;;;;1.40;1.30;;;;;;;;;;5005473;28;20189;-50
2023/09/25 01:39:56;;;;;;;1.25;1.15;;;;;;;;;;5001827;28;20506;-49
2023/09/25 01:42:22;;;;;;;1.35;1.20;;;;;;;;;;5000398;28;20268;-49
2023/09/25 01:44:48;;;;;;;3.92;1.35;;;;;;;;;;4998734;28;20181;-49
2023/09/25 01:47:14;;;;;;;1.42;1.30;;;;;;;;;;4992115;28;20830;-49
2023/09/25 01:49:41;;;;;;;1.38;1.27;;;;;;;;;;4998500;28;20190;-49
2023/09/25 01:52:07;;;;;;;1.85;1.73;;;;;;;;;;4997688;28;20235;-50
2023/09/25 01:54:34;;;;;;;2.00;1.77;;;;;;;;;;5010532;28;20218;-50
2023/09/25 01:56:59;;;;;;;1.48;1.38;;;;;;;;;;4995237;28;20205;-49
2023/09/25 01:59:25;;;;;;;1.30;1.20;;;;;;;;;;4993940;28;20193;-49
2023/09/25 02:01:52;;;;;;;1.40;1.30;;;;;;;;;;4994924;28;20189;-50
2023/09/25 02:04:18;;;;;;;2.45;1.30;;;;;;;;;;4981321;28;20211;-49
2023/09/25 02:06:45;;;;;;;1.30;1.20;;;;;;;;;;4994669;28;20735;-50
2023/09/25 02:09:11;;;;;;;1.10;1.10;;;;;;;;;;4996114;28;20227;-49
2023/09/25 02:11:37;;;;;;;1.55;1.45;;;;;;;;;;4991713;28;20194;-50
2023/09/25 02:14:04;;;;;;;1.00;1.00;;;;;;;;;;4996117;28;20460;-49
2023/09/25 02:16:30;;;;;;;1.52;1.42;;;;;;;;;;5002749;28;20173;-50
2023/09/25 02:18:57;;;;;;;1.40;1.30;;;;;;;;;;5004743;28;20555;-50
2023/09/25 02:21:22;;;;;;;1.30;1.20;;;;;;;;;;4998424;28;20181;-49
2023/09/25 02:23:48;;;;;;;1.35;1.25;;;;;;;;;;4988700;28;20200;-50
2023/09/25 02:26:14;;;;;;;1.40;1.30;;;;;;;;;;4998873;28;20219;-49
2023/09/25 02:28:40;;;;;;;2.50;1.58;;;;;;;;;;4993776;28;20561;-50
2023/09/25 02:31:07;;;;;;;1.73;1.58;;;;;;;;;;4993835;28;20182;-50
2023/09/25 02:33:33;;;;;;;1.50;1.40;;;;;;;;;;4989503;28;20201;-50
2023/09/25 02:36:17;;;;;;;1.23;1.13;;;;;;;;;;5003941;28;20471;-50
2023/09/25 02:38:43;;;;;;;3.05;1.35;;;;;;;;;;4986665;28;20636;-50
2023/09/25 02:41:09;;;;;;;1.98;1.30;;;;;;;;;;4992381;28;20186;-50
2023/09/25 02:43:35;;;;;;;1.08;1.00;;;;;;;;;;4995521;28;20279;-50
2023/09/25 02:46:01;;;;;;;2.20;1.30;;;;;;;;;;4987126;28;20613;-49
2023/09/25 02:48:27;;;;;;;1.30;1.20;;;;;;;;;;4985787;28;20224;-50
2023/09/25 02:50:53;;;;;;;1.15;1.05;;;;;;;;;;5007924;28;20212;-49
2023/09/25 02:53:19;;;;;;;1.70;1.30;;;;;;;;;;5002262;28;20291;-50
2023/09/25 02:55:49;;;;;;;1.48;1.10;;;;;;;;;;5013362;28;20226;-50
2023/09/25 02:58:15;;;;;;;1.00;1.00;;;;;;;;;;4998696;28;20180;-50
2023/09/25 03:00:41;;;;;;;1.10;1.05;;;;;;;;;;5000921;28;20170;-50
2023/09/25 03:03:07;;;;;;;1.25;1.15;;;;;;;;;;4994803;28;20188;-51
2023/09/25 03:05:33;;;;;;;1.20;1.10;;;;;;;;;;4994005;28;20184;-49
2023/09/25 03:07:59;;;;;;;1.30;1.20;;;;;;;;;;5002848;28;20196;-50
2023/09/25 03:10:25;;;;;;;1.30;1.10;;;;;;;;;;4991554;28;20465;-50
2023/09/25 03:12:51;;;;;;;2.17;1.25;;;;;;;;;;4995108;28;20197;-50
2023/09/25 03:15:17;;;;;;;1.00;0.90;;;;;;;;;;4993620;28;20496;-51
2023/09/25 03:17:43;;;;;;;2.08;1.20;;;;;;;;;;4999383;28;20612;-51
2023/09/25 03:20:15;;;;;;;1.00;1.00;;;;;;;;;;5000668;28;20441;-50
2023/09/25 03:22:45;;;;;;;2.22;1.48;;;;;;;;;;5005075;28;20185;-51
2023/09/25 03:25:11;;;;;;;1.20;1.08;;;;;;;;;;5007456;28;20188;-50
2023/09/25 03:27:37;;;;;;;1.10;1.02;;;;;;;;;;5000973;28;20173;-50
2023/09/25 03:30:04;;;;;;;1.42;1.13;;;;;;;;;;4997054;28;20568;-51
2023/09/25 03:32:31;;;;;;;1.02;1.00;;;;;;;;;;5000615;28;20188;-50
2023/09/25 03:34:57;;;;;;;2.38;1.42;;;;;;;;;;4995591;28;20213;-50
2023/09/25 03:37:23;;;;;;;1.38;1.27;;;;;;;;;;5002781;28;20181;-49
2023/09/25 03:39:49;;;;;;;1.52;1.17;;;;;;;;;;5006900;28;20495;-50
2023/09/25 03:42:15;;;;;;;2.53;1.38;;;;;;;;;;5000396;28;20826;-49
2023/09/25 03:44:40;;;;;;;2.40;1.67;;;;;;;;;;4997134;28;20198;-51
2023/09/25 03:47:06;;;;;;;11.93;2.60;;;;;;;;;;4990414;28;20255;-50
2023/09/25 03:49:32;;;;;;;26.98;5.38;;;;;;;;;;5000171;28;20193;-50
2023/09/25 03:51:58;;;;;;;22.60;5.93;;;;;;;;;;4998302;28;20185;-51
2023/09/25 03:54:24;;;;;;;22.80;4.22;;;;;;;;;;5003088;28;20209;-50
2023/09/25 03:56:50;;;;;;;15.02;5.15;;;;;;;;;;5005574;28;20344;-49
2023/09/25 03:59:16;;;;;;;11.23;3.28;;;;;;;;;;4997410;28;20181;-50
2023/09/25 04:01:42;;;;;;;14.60;3.42;;;;;;;;;;4997132;28;20185;-50
2023/09/25 04:04:08;;;;;;;11.18;2.50;;;;;;;;;;5003732;28;20184;-50
2023/09/25 04:06:34;;;;;;;9.18;2.85;;;;;;;;;;5001809;28;20473;-50
2023/09/25 04:09:00;;;;;;;7.70;2.92;;;;;;;;;;4990643;28;20216;-51
2023/09/25 04:11:26;;;;;;;5.35;2.53;;;;;;;;;;4999964;28;20223;-50
2023/09/25 04:13:52;;;;;;;8.40;2.30;;;;;;;;;;4996404;28;20264;-50
2023/09/25 04:16:18;;;;;;;6.18;2.30;;;;;;;;;;5005538;28;20579;-51
2023/09/25 04:18:43;;;;;;;9.55;2.85;;;;;;;;;;5003534;28;20213;-50
2023/09/25 04:21:11;;;;;;;9.88;3.17;;;;;;;;;;4998482;28;20561;-50
2023/09/25 04:23:37;;;;;;;10.10;3.70;;;;;;;;;;5006378;28;20197;-55
2023/09/25 04:26:04;;;;;;;13.27;4.32;;;;;;;;;;4988207;28;20263;-50
2023/09/25 04:28:33;;;;;;;12.23;4.57;;;;;;;;;;4990132;28;20264;-52
2023/09/25 04:31:04;;;;;;;22.90;5.75;;;;;;;;;;5001100;28;20649;-49
2023/09/25 04:33:32;;;;;;;22.88;6.50;;;;;;;;;;4993327;28;20201;-47
2023/09/25 04:35:58;;;;;;;16.83;5.82;;;;;;;;;;5000186;28;20192;-49
2023/09/25 04:38:25;;;;;;;15.75;6.25;;;;;;;;;;4998886;28;20188;-50
2023/09/25 04:40:51;;;;;;;11.98;5.70;;;;;;;;;;5013854;28;20308;-52
2023/09/25 04:43:20;;;;;;;11.75;5.55;;;;;;;;;;5004279;28;20189;-48
2023/09/25 04:45:47;;;;;;;12.27;5.55;;;;;;;;;;4998783;28;20189;-48
2023/09/25 04:48:13;;;;;;;9.88;5.25;;;;;;;;;;5002062;28;20560;-47
2023/09/25 04:50:42;;;;;;;8.40;4.82;;;;;;;;;;5004311;28;20185;-58
2023/09/25 04:53:11;;;;;;;9.93;4.72;;;;;;;;;;5003828;28;20180;-55
2023/09/25 04:55:40;;;;;;;10.57;4.18;;;;;;;;;;5001681;28;20177;-68
2023/09/25 04:58:06;;;;;;;7.70;4.55;;;;;;;;;;4989440;28;20679;-49
2023/09/25 05:00:33;;;;;;;8.32;4.53;;;;;;;;;;5003604;28;20207;-46
2023/09/25 05:03:00;;;;;;;6.45;4.47;;;;;;;;;;5002623;28;20181;-46
2023/09/25 05:05:26;;;;;;;8.85;4.13;;;;;;;;;;5003123;28;20184;-46
2023/09/25 05:07:53;;;;;;;7.38;4.47;;;;;;;;;;5005186;28;20243;-46
2023/09/25 05:10:22;;;;;;;7.47;3.95;;;;;;;;;;5006627;28;20173;-46
2023/09/25 05:12:48;;;;;;;6.22;3.70;;;;;;;;;;5004333;28;21046;-46
2023/09/25 05:15:15;;;;;;;4.70;3.50;;;;;;;;;;4995937;28;20225;-46
2023/09/25 05:17:41;;;;;;;6.25;4.10;;;;;;;;;;4994320;28;20213;-46
2023/09/25 05:20:10;;;;;;;3.58;3.08;;;;;;;;;;5020176;28;20173;-46
2023/09/25 05:22:37;;;;;;;3.97;3.22;;;;;;;;;;4996689;28;20568;-46
2023/09/25 05:25:03;;;;;;;9.23;3.25;;;;;;;;;;5006278;28;20564;-46
2023/09/25 05:27:29;;;;;;;4.45;3.30;;;;;;;;;;4998521;28;20185;-46
2023/09/25 05:29:57;;;;;;;4.38;2.88;;;;;;;;;;4996575;28;20189;-46
2023/09/25 05:32:23;;;;;;;3.78;2.83;;;;;;;;;;5005530;28;20213;-46
2023/09/25 05:34:49;;;;;;;3.78;2.60;;;;;;;;;;4999207;28;20236;-46
2023/09/25 05:37:15;;;;;;;3.80;2.63;;;;;;;;;;5000934;28;20183;-43
2023/09/25 05:39:41;;;;;;;3.90;2.90;;;;;;;;;;5004512;28;20491;-55
2023/09/25 05:42:07;;;;;;;4.47;2.60;;;;;;;;;;5001997;28;20556;-48
2023/09/25 05:44:33;;;;;;;4.50;2.90;;;;;;;;;;5005307;28;20615;-47
2023/09/25 05:46:58;;;;;;;3.97;2.95;;;;;;;;;;5005677;28;20462;-50
2023/09/25 05:49:25;;;;;;;3.97;2.33;;;;;;;;;;4997680;28;20184;-48
2023/09/25 05:51:53;;;;;;;4.90;2.42;;;;;;;;;;5005070;28;20203;-57
2023/09/25 05:54:19;;;;;;;4.60;2.63;;;;;;;;;;5004715;28;20254;-49
2023/09/25 05:56:45;;;;;;;4.20;2.20;;;;;;;;;;4999362;28;20185;-49
2023/09/25 05:59:11;;;;;;;6.30;2.53;;;;;;;;;;4993011;28;20548;-50
2023/09/25 06:01:37;;;;;;;4.15;2.85;;;;;;;;;;4998783;28;20173;-48
2023/09/25 06:04:03;;;;;;;5.85;3.05;;;;;;;;;;4996993;28;20188;-62
2023/09/25 06:06:29;;;;;;;3.80;2.28;;;;;;;;;;5007264;28;20460;-54
2023/09/25 06:08:55;;;;;;;3.33;2.42;;;;;;;;;;5000236;28;20189;-50
2023/09/25 06:11:22;;;;;;;5.78;2.00;;;;;;;;;;5000705;28;20234;-51
2023/09/25 06:13:48;;;;;;;5.45;2.50;;;;;;;;;;4999778;28;20632;-54
2023/09/25 06:16:16;;;;;;;3.72;2.00;;;;;;;;;;4995767;28;20188;-49
2023/09/25 06:18:42;;;;;;;4.22;2.13;;;;;;;;;;4986192;28;20939;-54
2023/09/25 06:21:13;;;;;;;10.43;2.45;;;;;;;;;;4999603;28;20288;-54
2023/09/25 06:23:39;;;;;;;4.97;2.00;;;;;;;;;;5001464;28;20595;-49
2023/09/25 06:26:06;;;;;;;2.85;2.25;;;;;;;;;;4998530;28;20607;-49
2023/09/25 06:28:32;;;;;;;4.03;2.30;;;;;;;;;;4997181;28;20866;-52
2023/09/25 06:30:58;;;;;;;6.40;2.45;;;;;;;;;;4984471;28;20221;-60
2023/09/25 06:33:25;;;;;;;9.63;2.53;;;;;;;;;;4993569;28;20209;-51
2023/09/25 06:35:52;;;;;;;11.35;2.60;;;;;;;;;;5002029;28;20476;-50
2023/09/25 06:38:19;;;;;;;12.15;3.17;;;;;;;;;;4992651;28;20184;-57
2023/09/25 06:40:45;;;;;;;9.75;2.40;;;;;;;;;;4996343;28;20204;-57
2023/09/25 06:43:12;;;;;;;4.70;2.30;;;;;;;;;;4992445;28;20180;-57
2023/09/25 06:45:38;;;;;;;3.97;2.40;;;;;;;;;;4985894;28;20557;-51
2023/09/25 06:48:04;;;;;;;12.00;2.53;;;;;;;;;;4991235;28;20703;-53
2023/09/25 06:50:30;;;;;;;11.15;2.97;;;;;;;;;;4998998;28;20185;-52
2023/09/25 06:52:56;;;;;;;7.43;1.87;;;;;;;;;;4996510;28;20275;-61
2023/09/25 06:55:22;;;;;;;9.30;2.38;;;;;;;;;;4997172;28;20209;-48
2023/09/25 06:57:48;;;;;;;5.43;2.92;;;;;;;;;;4991569;28;20196;-49
2023/09/25 07:00:14;;;;;;;7.25;1.98;;;;;;;;;;4991362;28;20197;-49
2023/09/25 07:02:40;;;;;;;13.18;2.13;;;;;;;;;;4997838;28;20193;-49
2023/09/25 07:05:06;;;;;;;5.72;1.90;;;;;;;;;;5002619;28;20415;-50
2023/09/25 07:07:33;;;;;;;11.30;2.20;;;;;;;;;;5001590;28;20196;-49
2023/09/25 07:09:58;;;;;;;7.95;2.70;;;;;;;;;;4996731;28;20251;-47
2023/09/25 07:12:25;;;;;;;3.92;2.05;;;;;;;;;;5003398;28;20215;-46
2023/09/25 07:14:58;;;;;;;3.75;1.65;;;;;;;;;;4997301;28;20216;-48
2023/09/25 07:17:26;;;;;;;29.83;7.85;;;;;;;;;;4995724;28;20177;-44
2023/09/25 07:19:52;;;;;;;20.08;5.43;;;;;;;;;;5002046;28;20296;-44
2023/09/25 07:22:18;;;;;;;21.88;5.50;;;;;;;;;;5006135;28;20204;-44
2023/09/25 07:24:44;;;;;;;21.85;4.78;;;;;;;;;;4992755;28;20231;-44
2023/09/25 07:27:10;;;;;;;13.52;3.75;;;;;;;;;;4994109;28;20193;-44
2023/09/25 07:29:37;;;;;;;17.17;4.20;;;;;;;;;;4994439;28;20173;-44
2023/09/25 07:32:03;;;;;;;22.40;4.07;;;;;;;;;;5002946;28;20188;-44
2023/09/25 07:34:31;;;;;;;16.40;3.22;;;;;;;;;;5003437;28;20200;-44
2023/09/25 07:36:57;;;;;;;16.92;3.72;;;;;;;;;;5005067;28;20180;-44
2023/09/25 07:39:24;;;;;;;13.27;3.55;;;;;;;;;;4999724;28;20187;-44
2023/09/25 07:41:50;;;;;;;10.85;3.15;;;;;;;;;;5005044;28;20552;-44
2023/09/25 07:44:16;;;;;;;10.48;3.25;;;;;;;;;;4991240;28;20207;-44
2023/09/25 07:46:43;;;;;;;7.00;2.58;;;;;;;;;;4998375;28;20197;-44
2023/09/25 07:49:09;;;;;;;13.27;3.53;;;;;;;;;;5005024;28;20207;-44
2023/09/25 07:51:36;;;;;;;10.75;3.10;;;;;;;;;;4998400;28;20204;-44
2023/09/25 07:54:03;;;;;;;10.38;3.15;;;;;;;;;;5002755;28;20213;-44
2023/09/25 07:56:30;;;;;;;9.77;2.75;;;;;;;;;;5002270;28;20231;-44
2023/09/25 07:58:56;;;;;;;9.00;3.00;;;;;;;;;;4995166;28;20264;-45
2023/09/25 08:01:22;;;;;;;5.93;3.08;;;;;;;;;;4996535;28;20189;-45
2023/09/25 08:03:51;;;;;;;22.65;3.72;;;;;;;;;;5006415;28;20192;-46
2023/09/25 08:06:19;;;;;;;11.48;3.20;;;;;;;;;;5008284;28;20196;-47
2023/09/25 08:08:45;;;;;;;6.35;2.75;;;;;;;;;;4998878;28;20467;-50
2023/09/25 08:11:13;;;;;;;17.08;3.28;;;;;;;;;;5002416;28;20186;-51
2023/09/25 08:13:39;;;;;;;16.75;3.33;;;;;;;;;;5005358;28;20473;-52
2023/09/25 08:16:06;;;;;;;16.95;2.45;;;;;;;;;;5000171;28;20193;-56
2023/09/25 08:18:32;;;;;;;8.10;2.40;;;;;;;;;;5008055;28;20185;-56
2023/09/25 08:20:59;;;;;;;7.75;2.50;;;;;;;;;;4999717;28;20307;-58
2023/09/25 08:23:25;;;;;;;11.43;3.08;;;;;;;;;;5013836;28;20602;-58
2023/09/25 08:25:51;;;;;;;9.73;2.90;;;;;;;;;;5001064;28;20184;-58
2023/09/25 08:28:17;;;;;;;8.20;2.88;;;;;;;;;;4990407;28;20272;-61
2023/09/25 08:30:43;;;;;;;6.10;2.58;;;;;;;;;;4986980;28;20193;-58
2023/09/25 08:33:09;;;;;;;6.82;2.97;;;;;;;;;;4989592;28;20185;-58
2023/09/25 08:35:35;;;;;;;10.02;2.60;;;;;;;;;;4993446;28;20189;-58
2023/09/25 08:38:01;;;;;;;7.20;2.33;;;;;;;;;;4986929;28;20182;-58
2023/09/25 08:40:28;;;;;;;7.78;2.60;;;;;;;;;;4992259;28;20258;-58
2023/09/25 08:42:54;;;;;;;5.43;1.85;;;;;;;;;;4996755;28;20182;-58
2023/09/25 08:45:21;;;;;;;5.47;2.40;;;;;;;;;;4982741;28;20178;-58
2023/09/25 08:47:47;;;;;;;5.07;2.30;;;;;;;;;;4992344;28;20193;-58
2023/09/25 08:50:14;;;;;;;3.55;1.92;;;;;;;;;;4995943;28;20521;-57
2023/09/25 08:52:41;;;;;;;8.60;2.10;;;;;;;;;;4996757;28;20616;-57
2023/09/25 08:55:08;;;;;;;5.95;1.95;;;;;;;;;;4989925;28;20201;-57
2023/09/25 08:57:35;;;;;;;4.40;1.90;;;;;;;;;;4994141;28;20611;-57
2023/09/25 09:00:14;;;;;;;5.72;1.95;;;;;;;;;;4999520;28;20189;-57
2023/09/25 09:02:40;;;;;;;3.40;2.08;;;;;;;;;;4994441;28;20183;-58
2023/09/25 09:05:07;;;;;;;3.92;1.77;;;;;;;;;;4996975;28;20193;-58
2023/09/25 09:07:33;;;;;;;2.67;1.75;;;;;;;;;;5000976;28;20231;-58
2023/09/25 09:09:59;;;;;;;2.58;1.75;;;;;;;;;;4999700;28;20181;-58
2023/09/25 09:12:25;;;;;;;5.13;2.05;;;;;;;;;;5000164;28;20188;-58
2023/09/25 09:14:51;;;;;;;2.85;1.83;;;;;;;;;;5003159;28;20209;-58
2023/09/25 09:17:17;;;;;;;5.47;2.05;;;;;;;;;;5007366;28;20216;-58
2023/09/25 09:19:46;;;;;;;4.55;1.98;;;;;;;;;;5005600;28;20216;-58
2023/09/25 09:22:17;;;;;;;1.95;1.58;;;;;;;;;;5007039;28;20176;-58
2023/09/25 09:24:43;;;;;;;3.75;1.60;;;;;;;;;;5006153;28;20198;-58
2023/09/25 09:27:11;;;;;;;2.63;1.90;;;;;;;;;;4997637;28;20227;-58
2023/09/25 09:29:37;;;;;;;2.90;1.60;;;;;;;;;;5008229;28;20181;-58
2023/09/25 09:32:04;;;;;;;2.85;1.45;;;;;;;;;;5007741;28;20197;-58
2023/09/25 09:34:30;;;;;;;2.80;1.80;;;;;;;;;;5008815;28;20507;-58
2023/09/25 09:36:56;;;;;;;2.20;1.52;;;;;;;;;;5006323;28;20206;-58
2023/09/25 09:39:25;;;;;;;2.17;1.80;;;;;;;;;;5004976;28;20463;-58
2023/09/25 09:41:51;;;;;;;3.25;1.65;;;;;;;;;;5001332;28;20235;-58
2023/09/25 09:44:18;;;;;;;1.50;1.40;;;;;;;;;;5003067;28;20189;-58
2023/09/25 09:46:46;;;;;;;3.10;1.50;;;;;;;;;;5000877;28;20695;-58
2023/09/25 09:49:13;;;;;;;3.40;1.60;;;;;;;;;;5007068;28;20275;-59
2023/09/25 09:51:41;;;;;;;1.80;1.40;;;;;;;;;;5005119;28;20180;-58
2023/09/25 09:54:08;;;;;;;1.52;1.42;;;;;;;;;;5008927;28;20957;-58
2023/09/25 09:56:35;;;;;;;2.58;1.63;;;;;;;;;;5003608;28;20177;-58
2023/09/25 09:59:02;;;;;;;2.53;1.75;;;;;;;;;;5003579;28;20255;-58
2023/09/25 10:01:28;;;;;;;4.28;1.60;;;;;;;;;;5001719;28;20188;-59
2023/09/25 10:03:54;;;;;;;11.95;1.70;;;;;;;;;;5006993;28;20189;-49
2023/09/25 10:06:24;;;;;;;3.08;1.50;;;;;;;;;;5001184;28;20189;-50
2023/09/25 10:09:01;;;;;;;4.45;1.40;;;;;;;;;;5000707;28;20189;-45
2023/09/25 10:11:27;;;;;;;3.80;1.30;;;;;;;;;;4994250;28;20177;-50
2023/09/25 10:14:00;;;;;;;1.65;1.40;;;;;;;;;;4997853;28;20205;-49
2023/09/25 10:16:28;;;;;;;1.95;1.42;;;;;;;;;;4996625;28;20173;-59
2023/09/25 10:18:56;;;;;;;2.25;1.30;;;;;;;;;;4999874;28;20262;-50
2023/09/25 10:21:22;;;;;;;3.20;1.33;;;;;;;;;;4995476;28;20185;-55
2023/09/25 10:23:48;;;;;;;1.40;1.30;;;;;;;;;;4989949;28;20197;-51
2023/09/25 10:26:19;;;;;;;1.90;1.50;;;;;;;;;;4997614;28;20610;-49
2023/09/25 10:28:56;;;;;;;1.23;1.08;;;;;;;;;;4999872;28;20212;-52
2023/09/25 10:31:24;;;;;;;2.70;1.50;;;;;;;;;;5002766;28;20185;-50
2023/09/25 10:33:54;;;;;;;2.88;1.50;;;;;;;;;;5002636;28;20584;-51
2023/09/25 10:36:20;;;;;;;1.48;1.15;;;;;;;;;;5003672;28;20192;-51
2023/09/25 10:38:53;;;;;;;1.38;1.20;;;;;;;;;;4997965;28;20181;-50
2023/09/25 10:41:22;;;;;;;1.65;1.05;;;;;;;;;;4994322;28;20177;-49
2023/09/25 10:43:48;;;;;;;2.47;1.10;;;;;;;;;;4991789;28;20185;-50
2023/09/25 10:46:14;;;;;;;2.63;1.27;;;;;;;;;;5003392;28;20351;-50
2023/09/25 10:48:40;;;;;;;2.38;1.10;;;;;;;;;;4991910;28;20192;-51
2023/09/25 10:51:07;;;;;;;2.03;0.90;;;;;;;;;;4995157;28;20189;-50
2023/09/25 10:53:33;;;;;;;1.83;1.00;;;;;;;;;;4996942;28;20204;-50
2023/09/25 10:55:59;;;;;;;1.83;0.90;;;;;;;;;;4989588;28;21124;-49
2023/09/25 10:58:26;;;;;;;1.08;0.93;;;;;;;;;;4997122;28;20188;-50
2023/09/25 11:00:52;;;;;;;1.45;1.02;;;;;;;;;;5003767;28;20177;-50
2023/09/25 11:03:18;;;;;;;0.93;0.93;;;;;;;;;;5010038;28;20460;-50
2023/09/25 11:05:45;;;;;;;0.95;0.85;;;;;;;;;;5002535;28;20592;-50
2023/09/25 11:08:16;;;;;;;0.73;0.70;;;;;;;;;;5003375;28;20453;-51
2023/09/25 11:10:42;;;;;;;0.70;0.70;;;;;;;;;;5011941;28;20175;-50
2023/09/25 11:13:09;;;;;;;2.35;0.60;;;;;;;;;;4998432;28;20189;-51
2023/09/25 11:15:37;;;;;;;1.23;0.90;;;;;;;;;;4992235;28;20181;-50
2023/09/25 11:18:04;;;;;;;1.70;1.00;;;;;;;;;;5000151;28;20246;-50
2023/09/25 11:20:30;;;;;;;1.23;0.90;;;;;;;;;;4995711;28;20187;-50
2023/09/25 11:23:06;;;;;;;0.65;0.60;;;;;;;;;;4994519;28;20197;-51
2023/09/25 11:25:39;;;;;;;0.82;0.82;;;;;;;;;;5001464;28;20184;-51
2023/09/25 11:28:06;;;;;;;0.82;0.75;;;;;;;;;;4995960;28;20275;-51
2023/09/25 11:30:32;;;;;;;2.03;1.15;;;;;;;;;;5000118;28;20223;-50
2023/09/25 11:33:03;;;;;;;0.85;0.70;;;;;;;;;;5005724;28;20189;-50
2023/09/25 11:35:29;;;;;;;1.17;0.90;;;;;;;;;;5012562;28;20294;-50
2023/09/25 11:37:55;;;;;;;0.80;0.70;;;;;;;;;;5004538;28;20185;-50
2023/09/25 11:40:21;;;;;;;0.80;0.80;;;;;;;;;;5006107;28;20196;-50
2023/09/25 11:42:47;;;;;;;1.05;0.95;;;;;;;;;;5002444;28;20192;-50
2023/09/25 11:45:15;;;;;;;3.05;0.90;;;;;;;;;;5006710;28;20215;-50
2023/09/25 11:47:41;;;;;;;1.45;1.02;;;;;;;;;;4992196;28;20174;-49
2023/09/25 11:50:08;;;;;;;1.20;0.80;;;;;;;;;;5003536;28;20229;-50
2023/09/25 11:52:34;;;;;;;1.73;0.80;;;;;;;;;;5005492;28;20235;-50
2023/09/25 11:55:00;;;;;;;0.77;0.77;;;;;;;;;;5003696;28;20254;-50
2023/09/25 11:57:26;;;;;;;2.20;0.80;;;;;;;;;;4998790;28;20263;-50
2023/09/25 11:59:52;;;;;;;1.50;0.68;;;;;;;;;;5003154;28;20261;-51
2023/09/25 12:02:18;;;;;;;0.77;0.77;;;;;;;;;;5003123;28;20272;-49
2023/09/25 12:04:45;;;;;;;0.60;0.60;;;;;;;;;;4999153;28;20517;-49
2023/09/25 12:07:11;;;;;;;1.20;0.80;;;;;;;;;;4997017;28;20503;-51
2023/09/25 12:09:37;;;;;;;1.52;0.82;;;;;;;;;;5006229;28;20181;-50
2023/09/25 12:12:03;;;;;;;1.67;0.95;;;;;;;;;;4996286;28;20562;-50
2023/09/25 12:14:30;;;;;;;0.60;0.60;;;;;;;;;;5005718;28;20205;-50
2023/09/25 12:16:56;;;;;;;0.60;0.60;;;;;;;;;;5002504;28;20248;-50
2023/09/25 12:19:22;;;;;;;2.85;0.77;;;;;;;;;;4989868;28;20616;-50
2023/09/25 12:21:48;;;;;;;0.63;0.63;;;;;;;;;;4991419;28;20185;-50
2023/09/25 12:24:14;;;;;;;1.67;0.90;;;;;;;;;;4993180;28;20216;-50
2023/09/25 12:26:41;;;;;;;0.80;0.68;;;;;;;;;;4996530;28;20189;-49
2023/09/25 12:29:07;;;;;;;1.10;0.80;;;;;;;;;;4998057;28;20185;-50
2023/09/25 12:31:33;;;;;;;0.73;0.60;;;;;;;;;;4993401;28;20296;-51
2023/09/25 12:33:59;;;;;;;0.60;0.60;;;;;;;;;;4998332;28;20321;-50
2023/09/25 12:36:25;;;;;;;1.35;0.80;;;;;;;;;;4994284;28;20274;-50
2023/09/25 12:38:51;;;;;;;0.60;0.50;;;;;;;;;;4993427;28;20218;-50
2023/09/25 12:41:17;;;;;;;0.93;0.75;;;;;;;;;;4998187;28;20178;-50
2023/09/25 12:43:43;;;;;;;2.10;0.82;;;;;;;;;;4995430;28;20178;-50
2023/09/25 12:46:09;;;;;;;0.68;0.68;;;;;;;;;;5002086;28;20200;-51
2023/09/25 12:48:36;;;;;;;1.20;0.60;;;;;;;;;;5004892;28;20635;-50
2023/09/25 12:51:02;;;;;;;2.60;0.70;;;;;;;;;;5001089;28;20196;-51
2023/09/25 12:53:28;;;;;;;1.33;0.90;;;;;;;;;;4993378;28;20472;-50
2023/09/25 12:55:54;;;;;;;0.88;0.82;;;;;;;;;;4998386;28;20193;-50
2023/09/25 12:58:20;;;;;;;0.50;0.50;;;;;;;;;;4989982;28;20253;-51
2023/09/25 13:00:46;;;;;;;0.88;0.88;;;;;;;;;;5005852;28;20268;-50
2023/09/25 13:03:12;;;;;;;0.85;0.50;;;;;;;;;;5005286;28;20289;-50
2023/09/25 13:05:38;;;;;;;0.50;0.50;;;;;;;;;;5004792;28;20264;-50
2023/09/25 13:08:05;;;;;;;0.80;0.68;;;;;;;;;;5003760;28;20189;-51
2023/09/25 13:10:31;;;;;;;0.90;0.50;;;;;;;;;;4990947;28;20186;-50
2023/09/25 13:12:57;;;;;;;0.60;0.60;;;;;;;;;;4997096;28;20232;-50
2023/09/25 13:15:23;;;;;;;2.15;0.60;;;;;;;;;;5006615;28;20205;-50
2023/09/25 13:17:52;;;;;;;0.82;0.63;;;;;;;;;;5010093;28;20212;-50
2023/09/25 13:20:18;;;;;;;1.17;0.95;;;;;;;;;;4998035;28;20521;-50
2023/09/25 13:22:44;;;;;;;0.65;0.60;;;;;;;;;;5003722;28;20248;-51
2023/09/25 13:25:10;;;;;;;0.93;0.50;;;;;;;;;;5009010;28;20213;-50
2023/09/25 13:27:39;;;;;;;0.70;0.70;;;;;;;;;;4999825;28;20580;-50
2023/09/25 13:30:11;;;;;;;0.70;0.70;;;;;;;;;;5003052;28;20449;-51
2023/09/25 13:32:37;;;;;;;0.55;0.55;;;;;;;;;;5011673;28;20189;-51
2023/09/25 13:35:03;;;;;;;0.60;0.60;;;;;;;;;;5009502;28;20271;-50
2023/09/25 13:37:29;;;;;;;8.30;1.58;;;;;;;;;;4998806;28;20181;-50
2023/09/25 13:39:57;;;;;;;1.02;0.70;;;;;;;;;;5007874;28;20189;-50
2023/09/25 13:42:23;;;;;;;1.58;0.70;;;;;;;;;;5001794;28;20308;-49
2023/09/25 13:44:49;;;;;;;1.02;0.75;;;;;;;;;;5003027;28;20747;-50
2023/09/25 13:47:15;;;;;;;1.13;0.60;;;;;;;;;;4996114;28;20205;-50
2023/09/25 13:49:43;;;;;;;1.00;0.73;;;;;;;;;;5004346;28;20588;-50
2023/09/25 13:52:09;;;;;;;1.52;0.70;;;;;;;;;;5000029;28;20180;-51
2023/09/25 13:54:35;;;;;;;0.90;0.68;;;;;;;;;;4994372;28;20213;-50
2023/09/25 13:57:01;;;;;;;2.20;0.47;;;;;;;;;;4990938;28;20193;-49
2023/09/25 13:59:27;;;;;;;0.85;0.60;;;;;;;;;;4997974;28;20549;-50
2023/09/25 14:01:53;;;;;;;0.70;0.70;;;;;;;;;;5004221;28;20185;-50
2023/09/25 14:04:19;;;;;;;1.55;0.68;;;;;;;;;;4995444;28;20596;-51
2023/09/25 14:06:45;;;;;;;0.73;0.50;;;;;;;;;;4997992;28;20192;-50
2023/09/25 14:09:11;;;;;;;1.88;0.60;;;;;;;;;;5004478;28;20191;-50
2023/09/25 14:11:37;;;;;;;0.65;0.65;;;;;;;;;;5000465;28;20212;-50
2023/09/25 14:14:04;;;;;;;1.02;0.70;;;;;;;;;;5000337;28;20482;-50
2023/09/25 14:16:30;;;;;;;2.20;0.80;;;;;;;;;;4989580;28;20186;-50
2023/09/25 14:18:56;;;;;;;9.82;1.38;;;;;;;;;;5004543;28;20255;-51
2023/09/25 14:21:22;;;;;;;0.75;0.75;;;;;;;;;;5004902;28;20422;-50
2023/09/25 14:23:51;;;;;;;7.43;0.77;;;;;;;;;;4997814;28;20545;-49
2023/09/25 14:26:17;;;;;;;1.73;0.77;;;;;;;;;;4991333;28;20559;-49
2023/09/25 14:28:44;;;;;;;7.80;0.93;;;;;;;;;;4995252;28;20192;-50
2023/09/25 14:31:10;;;;;;;5.22;1.05;;;;;;;;;;4988208;28;20186;-49
2023/09/25 14:33:39;;;;;;;3.90;1.10;;;;;;;;;;4992722;28;20213;-50
2023/09/25 14:36:06;;;;;;;2.70;0.90;;;;;;;;;;5005568;28;20299;-50
2023/09/25 14:38:32;;;;;;;3.03;0.82;;;;;;;;;;5004677;28;20276;-50